To NAV CANADA Home Page Login to a new session Search on AWWS site Feedback and Comments Disclaimer Vers la page française équivalente Tips FAQ What's new on the site To the Forecasts and Observations / NOTAM section To "File a Flight Plan" website Publications and other links Update of the User's profile FIC Telephone Numbers My Weather Data Folder Route Weather Data Regional Weather Data Local Weather Data To the Forecasts and Observations / NOTAM section
Request Generated 04/24/2014 at 01:32:09 UTC . Weather information available at that time is displayed.

METAR/TAF

IQALUIT/NU    

METAR CYFB 240100Z 36006KT 20SM SKC M16/M20 A3031 RMK SLP268=
METAR CYFB 240000Z 36004KT 30SM SKC M14/M18 A3031 RMK SLP268=
METAR CYFB 232300Z 00000KT 30SM SKC M11/M15 A3030 RMK SLP264=

TAF CYFB 232338Z 2400/2424 VRB03KT P6SM SKC
FM240300 VRB03KT P6SM FEW030 TEMPO 2403/2412 5SM IC
RMK NXT FCST BY 240600Z=
Your time UTC time
Weather data provided by Environment Canada and NAV CANADA